Airfield :
LOGIN :

Register | Disclaimer

   EN    FR    IT 

 










Legend :    VFR   Marginal VFR   IFR   Intensive IFR   Very Intensive IFR
Visi :
Ceiling :
>= 8 km
>= 3000ft
5 to 8 km
1000 to 3000 ft
1500m to 5 km
500 to 1000 ft
800 to 1500m
200 to 500 ft
< 800m
< 200 ft
Symbols :   Thunderstorms  Fog  Heavy snow  Heavy precipitations  Wind > 20 kt
SIGMETs :     Misc.  Thunderstorms  Icing  Turbulence  Mountain Waves  Volcanic Ashes






- Airport Elevation : 11 ft
- IATA code : SXL


EISG - Sligo

CURRENT METAR :
  • 101000Z 10005KT 050V150 CAVOK 13/10 Q1021

EXPIRED METARs :
  • 100930Z 13005KT 090V180 CAVOK 13/10 Q1021
  • 100900Z VRB02KT CAVOK 13/09 Q1021
  • 100830Z VRB01KT CAVOK 12/10 Q1021
  • 100800Z VRB02KT CAVOK 11/10 Q1021
  • 100730Z 00000KT CAVOK 10/10 Q1021
  • 100700Z VRB01KT CAVOK 10/10 Q1021

TAF TAF EISG
Valid from the 10 at 09:00 until the 10 at 18:00 UTC


100800Z 1009/1018 16006KT 9999 FEW025
BECMG 1013/1015 VRB03KT
TEMPO 1013/1018 -SHRA FEW020CB



MET'MAP, your aeronautical weather chart ! - Copyright ORBIFLY December 2007 - Disclaimer

ORBIFLY MET'MAP TEAM :

Programming & Development : Alexandra Zaïnal
Concept & original design : Baudouin d'Aumeries
Assistance for programming : Marc-Olivier Méhu
Technical & hardware support : Manuel Goepfert

Contact : metmap@orbifly.com




SOURCES & CREDITS :

   NOAA